createdAt,value
2023-03-31T00:01:34.688Z,3.94
2023-03-31T00:04:05.610Z,3.74
2023-03-31T00:06:42.043Z,3.79
2023-03-31T00:09:13.070Z,3.88
2023-03-31T00:11:41.022Z,4.02
2023-03-31T00:14:09.534Z,3.62
2023-03-31T00:16:39.102Z,3.76
2023-03-31T00:19:10.293Z,3.36
2023-03-31T00:21:38.236Z,3.82
2023-03-31T00:24:07.545Z,3.46
2023-03-31T00:26:36.976Z,3.43
2023-03-31T00:29:07.322Z,3.23
2023-03-31T00:31:36.165Z,3.57
2023-03-31T00:34:03.792Z,3.66
2023-03-31T00:36:32.488Z,3.67
2023-03-31T00:39:08.915Z,3.89
2023-03-31T00:41:39.360Z,3.79
2023-03-31T00:44:22.916Z,3.67
2023-03-31T00:47:04.987Z,3.76
2023-03-31T00:49:37.976Z,3.59
2023-03-31T00:52:35.832Z,3.62
2023-03-31T00:55:09.208Z,3.35
2023-03-31T00:57:41.140Z,3.14
2023-03-31T01:00:15.705Z,3.22
2023-03-31T01:03:07.675Z,3.43
2023-03-31T01:05:50.321Z,3.13
2023-03-31T01:08:20.087Z,3.36
2023-03-31T01:10:51.613Z,3.51
2023-03-31T01:13:21.600Z,3.35
2023-03-31T01:15:49.109Z,3.16
2023-03-31T01:18:21.343Z,3.22
2023-03-31T01:21:07.909Z,3.33
2023-03-31T01:24:12.717Z,3.15
2023-03-31T01:27:14.110Z,3.26
2023-03-31T01:29:41.583Z,3.10
2023-03-31T01:32:39.515Z,2.68
2023-03-31T01:35:27.007Z,2.85
2023-03-31T01:38:13.591Z,2.77
2023-03-31T01:40:41.183Z,2.72
2023-03-31T01:43:31.719Z,2.91
2023-03-31T01:46:28.605Z,2.99
2023-03-31T01:49:19.750Z,2.43
2023-03-31T01:51:47.606Z,2.46
2023-03-31T01:54:52.384Z,2.70
2023-03-31T01:57:20.036Z,2.60
2023-03-31T02:00:03.407Z,2.59
2023-03-31T02:02:38.914Z,2.61
2023-03-31T02:05:14.751Z,2.51
2023-03-31T02:07:51.279Z,2.50
2023-03-31T02:10:20.747Z,2.49
2023-03-31T02:12:51.448Z,2.15
2023-03-31T02:15:27.284Z,2.47
2023-03-31T02:17:59.677Z,2.34
2023-03-31T02:20:32.686Z,2.30
2023-03-31T02:23:01.258Z,2.04
2023-03-31T02:26:10.673Z,2.42
2023-03-31T02:28:39.291Z,2.60
2023-03-31T02:31:44.468Z,1.94
2023-03-31T02:34:13.011Z,2.11
2023-03-31T02:36:42.857Z,2.43
2023-03-31T02:39:21.956Z,2.08
2023-03-31T02:41:49.902Z,2.17
2023-03-31T02:44:17.969Z,1.79
2023-03-31T02:46:47.271Z,2.20
2023-03-31T02:49:17.186Z,2.19
2023-03-31T02:51:53.479Z,2.03
2023-03-31T02:54:30.162Z,1.85
2023-03-31T02:57:25.191Z,1.82
2023-03-31T03:00:24.608Z,1.59
2023-03-31T03:03:36.940Z,1.68
2023-03-31T03:06:20.844Z,1.66
2023-03-31T03:09:13.596Z,1.71
2023-03-31T03:11:53.148Z,1.48
2023-03-31T03:14:54.232Z,1.64
2023-03-31T03:17:33.756Z,1.57
2023-03-31T03:20:08.364Z,1.43
2023-03-31T03:22:40.698Z,1.67
2023-03-31T03:25:11.655Z,1.74
2023-03-31T03:27:41.114Z,1.62
2023-03-31T03:30:11.421Z,1.72
2023-03-31T03:32:39.539Z,1.62
2023-03-31T03:35:07.582Z,1.63
2023-03-31T03:37:35.187Z,1.62
2023-03-31T03:40:05.217Z,1.92
2023-03-31T03:42:33.721Z,1.94
2023-03-31T03:45:05.918Z,1.79
2023-03-31T03:47:34.260Z,1.74
2023-03-31T03:50:02.473Z,1.94
2023-03-31T03:52:30.099Z,1.97
2023-03-31T03:54:58.166Z,2.08
2023-03-31T03:57:26.474Z,2.41
2023-03-31T03:59:54.001Z,2.34
2023-03-31T04:02:24.014Z,2.47
2023-03-31T04:04:53.149Z,2.45
2023-03-31T04:07:20.964Z,2.52
2023-03-31T04:09:50.015Z,2.23
2023-03-31T04:12:17.798Z,2.04
2023-03-31T04:14:45.378Z,2.29
2023-03-31T04:17:18.784Z,2.28
2023-03-31T04:19:50.907Z,2.26
2023-03-31T04:22:20.739Z,2.33
2023-03-31T04:24:52.931Z,1.92
2023-03-31T04:27:21.254Z,2.14
2023-03-31T04:29:57.189Z,2.27
2023-03-31T04:32:25.130Z,2.39
2023-03-31T04:35:02.721Z,2.55
2023-03-31T04:37:35.044Z,2.65
2023-03-31T04:40:09.293Z,2.78
2023-03-31T04:42:36.955Z,2.68
2023-03-31T04:45:04.972Z,3.00
2023-03-31T04:47:34.390Z,2.78
2023-03-31T04:50:02.045Z,2.89
2023-03-31T04:52:29.785Z,2.62
2023-03-31T04:54:57.222Z,2.77
2023-03-31T04:57:24.751Z,2.94
2023-03-31T04:59:55.033Z,2.99
2023-03-31T05:02:25.171Z,3.45
2023-03-31T05:04:53.083Z,3.42
2023-03-31T05:07:20.671Z,3.45
2023-03-31T05:09:48.110Z,3.33
2023-03-31T05:12:15.778Z,3.72
2023-03-31T05:14:43.427Z,3.71
2023-03-31T05:17:11.505Z,3.79
2023-03-31T05:19:40.458Z,4.16
2023-03-31T05:22:07.955Z,4.12
2023-03-31T05:24:36.549Z,4.21
2023-03-31T05:27:04.112Z,4.47
2023-03-31T05:29:32.196Z,4.27
2023-03-31T05:31:59.932Z,4.65
2023-03-31T05:34:27.410Z,4.51
2023-03-31T05:36:54.880Z,4.62
2023-03-31T05:39:22.297Z,4.85
2023-03-31T05:41:49.694Z,5.09
2023-03-31T05:44:17.376Z,4.86
2023-03-31T05:46:45.121Z,5.02
2023-03-31T05:49:12.812Z,5.52
2023-03-31T05:51:40.447Z,5.38
2023-03-31T05:54:08.067Z,5.32
2023-03-31T05:56:37.381Z,5.79
2023-03-31T05:59:05.329Z,6.02
2023-03-31T06:01:33.077Z,6.03
2023-03-31T06:04:01.992Z,6.20
2023-03-31T06:06:29.644Z,6.42
2023-03-31T06:08:58.446Z,6.56
2023-03-31T06:11:26.848Z,6.58
2023-03-31T06:13:54.278Z,6.54
2023-03-31T06:16:21.885Z,6.95
2023-03-31T06:18:51.567Z,6.80
2023-03-31T06:21:19.274Z,6.97
2023-03-31T06:23:47.882Z,6.80
2023-03-31T06:26:17.923Z,7.20
2023-03-31T06:28:47.037Z,7.09
2023-03-31T06:31:17.781Z,7.36
2023-03-31T06:33:46.011Z,7.73
2023-03-31T06:36:16.904Z,7.93
2023-03-31T06:38:45.073Z,8.37
2023-03-31T06:41:14.699Z,8.60
2023-03-31T06:43:42.963Z,8.69
2023-03-31T06:46:11.129Z,8.69
2023-03-31T06:48:38.771Z,8.46
2023-03-31T06:51:07.970Z,8.68
2023-03-31T06:53:36.709Z,8.41
2023-03-31T06:56:06.415Z,8.29
2023-03-31T06:58:34.526Z,8.45
2023-03-31T07:01:06.490Z,8.77
2023-03-31T07:03:36.482Z,8.43
2023-03-31T07:06:04.165Z,8.59
2023-03-31T07:08:31.801Z,8.71
2023-03-31T07:11:00.859Z,8.52
2023-03-31T07:13:29.495Z,8.75
2023-03-31T07:15:57.602Z,8.87
2023-03-31T07:18:26.362Z,8.78
2023-03-31T07:20:54.808Z,8.90
2023-03-31T07:23:22.487Z,9.11
2023-03-31T07:25:53.206Z,9.03
2023-03-31T07:28:20.860Z,9.08
2023-03-31T07:30:48.363Z,9.07
2023-03-31T07:33:17.467Z,9.28
2023-03-31T07:35:44.874Z,9.24
2023-03-31T07:38:16.518Z,9.46
2023-03-31T07:40:47.486Z,9.20
2023-03-31T07:43:20.521Z,8.89
2023-03-31T07:45:48.216Z,9.09
2023-03-31T07:48:16.007Z,9.45
2023-03-31T07:50:43.885Z,9.21
2023-03-31T07:53:11.482Z,8.86
2023-03-31T07:55:38.823Z,9.29
2023-03-31T07:58:06.643Z,9.40
2023-03-31T08:00:34.068Z,8.99
2023-03-31T08:03:04.204Z,9.31
2023-03-31T08:05:32.486Z,9.21
2023-03-31T08:08:00.204Z,9.32
2023-03-31T08:10:31.810Z,9.57
2023-03-31T08:13:01.300Z,9.20
2023-03-31T08:15:29.128Z,8.89
2023-03-31T08:17:56.837Z,9.12
2023-03-31T08:20:24.570Z,9.00
2023-03-31T08:22:52.446Z,8.98
2023-03-31T08:25:21.417Z,9.14
2023-03-31T08:27:51.681Z,9.23
2023-03-31T08:30:20.500Z,9.23
2023-03-31T08:32:48.960Z,9.20
2023-03-31T08:35:16.751Z,9.46
2023-03-31T08:37:44.960Z,9.35
2023-03-31T08:40:20.290Z,9.13
2023-03-31T08:43:01.347Z,9.14
2023-03-31T08:45:32.009Z,8.80
2023-03-31T08:48:08.287Z,9.11
2023-03-31T08:50:45.518Z,9.25
2023-03-31T08:53:35.998Z,9.20
2023-03-31T08:56:08.203Z,9.23
2023-03-31T08:58:41.416Z,9.12
2023-03-31T09:01:24.228Z,9.20
2023-03-31T09:04:02.596Z,9.25
2023-03-31T09:06:43.536Z,9.36
2023-03-31T09:09:26.724Z,9.55
2023-03-31T09:11:56.874Z,9.73
2023-03-31T09:14:30.123Z,9.73
2023-03-31T09:17:25.439Z,9.54
2023-03-31T09:19:59.080Z,9.16
2023-03-31T09:22:53.232Z,9.66
2023-03-31T09:25:46.905Z,9.53
2023-03-31T09:28:25.689Z,9.41
2023-03-31T09:30:55.566Z,9.35
2023-03-31T09:33:33.256Z,9.45
2023-03-31T09:36:01.720Z,9.40
2023-03-31T09:38:34.524Z,9.42
2023-03-31T09:41:03.446Z,9.11
2023-03-31T09:43:35.468Z,9.47
2023-03-31T09:46:14.732Z,9.66
2023-03-31T09:48:53.950Z,9.68
2023-03-31T09:51:29.890Z,9.76
2023-03-31T09:54:24.119Z,9.90
2023-03-31T09:56:55.646Z,10.11
2023-03-31T09:59:34.625Z,10.23
2023-03-31T10:02:10.133Z,10.49
2023-03-31T10:04:46.710Z,10.46
2023-03-31T10:07:21.506Z,10.48
2023-03-31T10:09:49.189Z,10.62
2023-03-31T10:12:24.344Z,9.97
2023-03-31T10:14:54.681Z,9.93
2023-03-31T10:17:24.732Z,10.02
2023-03-31T10:19:59.880Z,10.05
2023-03-31T10:22:31.041Z,10.38
2023-03-31T10:25:17.484Z,10.23
2023-03-31T10:27:48.575Z,9.92
2023-03-31T10:30:23.168Z,9.85
2023-03-31T10:32:54.071Z,9.87
2023-03-31T10:35:29.757Z,10.48
2023-03-31T10:38:04.682Z,10.52
2023-03-31T10:40:36.564Z,10.78
2023-03-31T10:43:18.225Z,10.97
2023-03-31T10:45:51.520Z,10.90
2023-03-31T10:48:31.490Z,10.64
2023-03-31T10:51:04.518Z,10.79
2023-03-31T10:53:41.786Z,10.75
2023-03-31T10:56:37.754Z,11.01
2023-03-31T10:59:37.702Z,11.25
2023-03-31T11:02:27.445Z,10.79
2023-03-31T11:05:14.425Z,10.86
2023-03-31T11:08:27.331Z,10.81
2023-03-31T11:11:22.687Z,10.84
2023-03-31T11:14:29.848Z,10.99
2023-03-31T11:17:27.310Z,11.26
2023-03-31T11:20:38.202Z,11.52
2023-03-31T11:23:26.665Z,11.10
2023-03-31T11:26:06.305Z,11.25
2023-03-31T11:28:54.069Z,11.25
2023-03-31T11:31:31.165Z,11.69
2023-03-31T11:34:20.132Z,11.70
2023-03-31T11:37:11.973Z,11.74
2023-03-31T11:39:50.416Z,11.76
2023-03-31T11:42:50.677Z,11.60
2023-03-31T11:45:44.088Z,11.60
2023-03-31T11:48:33.623Z,11.48
2023-03-31T11:51:05.201Z,11.88
2023-03-31T11:53:36.659Z,11.85
2023-03-31T11:56:07.575Z,11.82
2023-03-31T11:58:45.573Z,12.13
2023-03-31T12:01:24.281Z,12.24
2023-03-31T12:03:56.649Z,11.86
2023-03-31T12:06:30.626Z,12.13
2023-03-31T12:09:16.624Z,12.02
2023-03-31T12:12:18.667Z,11.98
2023-03-31T12:15:00.396Z,11.96
2023-03-31T12:17:29.595Z,12.19
2023-03-31T12:20:10.828Z,11.98
2023-03-31T12:22:43.614Z,11.92
2023-03-31T12:25:19.820Z,11.68
2023-03-31T12:27:51.686Z,11.78
2023-03-31T12:30:42.302Z,12.01
2023-03-31T12:33:27.650Z,12.15
2023-03-31T12:36:49.574Z,12.28
2023-03-31T12:39:42.576Z,12.00
2023-03-31T12:42:15.686Z,12.03
2023-03-31T12:44:51.794Z,12.04
2023-03-31T12:47:41.490Z,11.97
2023-03-31T12:50:31.826Z,12.16
2023-03-31T12:53:12.556Z,12.54
2023-03-31T12:55:50.150Z,12.40
2023-03-31T12:58:32.399Z,12.47
2023-03-31T13:01:20.486Z,12.63
2023-03-31T13:04:26.778Z,12.54
2023-03-31T13:06:57.270Z,12.60
2023-03-31T13:09:44.165Z,12.87
2023-03-31T13:12:19.075Z,12.77
2023-03-31T13:14:49.364Z,12.85
2023-03-31T13:17:25.262Z,12.87
2023-03-31T13:19:55.399Z,12.63
2023-03-31T13:22:37.393Z,12.75
2023-03-31T13:25:39.657Z,12.67
2023-03-31T13:28:22.246Z,12.93
2023-03-31T13:30:52.081Z,12.73
2023-03-31T13:33:22.958Z,12.84
2023-03-31T13:36:07.263Z,12.83
2023-03-31T13:39:04.046Z,12.92
2023-03-31T13:41:46.299Z,12.86
2023-03-31T13:44:33.717Z,12.73
2023-03-31T13:47:25.871Z,12.96
2023-03-31T13:50:17.602Z,13.04
2023-03-31T13:53:07.636Z,13.13
2023-03-31T13:55:55.042Z,13.11
2023-03-31T13:58:34.127Z,13.07
2023-03-31T14:01:30.816Z,12.99
2023-03-31T14:04:32.340Z,13.21
2023-03-31T14:07:08.263Z,13.20
2023-03-31T14:09:49.803Z,12.97
2023-03-31T14:12:34.200Z,13.27
2023-03-31T14:15:07.098Z,13.36
2023-03-31T14:17:41.372Z,13.15
2023-03-31T14:20:20.940Z,13.13
2023-03-31T14:23:03.520Z,13.10
2023-03-31T14:25:37.295Z,13.22
2023-03-31T14:28:18.674Z,13.12
2023-03-31T14:31:05.087Z,13.03
2023-03-31T14:33:49.629Z,13.13
2023-03-31T14:36:31.253Z,13.01
2023-03-31T14:39:04.699Z,12.87
2023-03-31T14:41:33.071Z,13.00
2023-03-31T14:44:06.433Z,13.05
2023-03-31T14:46:38.506Z,12.96
2023-03-31T14:49:19.382Z,12.95
2023-03-31T14:51:48.946Z,12.81
2023-03-31T14:54:18.639Z,12.72
2023-03-31T14:56:51.119Z,12.85
2023-03-31T14:59:27.667Z,12.81
2023-03-31T15:02:03.504Z,12.62
2023-03-31T15:04:45.149Z,12.66
2023-03-31T15:07:15.712Z,12.71
2023-03-31T15:09:49.722Z,12.62
2023-03-31T15:12:22.017Z,12.62
2023-03-31T15:15:06.912Z,12.50
2023-03-31T15:17:41.745Z,12.39
2023-03-31T15:20:29.080Z,12.21
2023-03-31T15:22:57.764Z,12.19
2023-03-31T15:25:29.994Z,12.32
2023-03-31T15:28:03.330Z,12.33
2023-03-31T15:30:37.567Z,12.16
2023-03-31T15:35:57.735Z,12.25
2023-03-31T15:38:28.263Z,12.12
2023-03-31T15:40:58.091Z,12.12
2023-03-31T15:43:46.570Z,12.19
2023-03-31T15:46:25.735Z,12.14
2023-03-31T15:48:54.983Z,12.41
2023-03-31T15:51:31.336Z,12.23
2023-03-31T15:53:58.764Z,12.15
2023-03-31T15:56:38.358Z,12.06
2023-03-31T15:59:34.381Z,12.08
2023-03-31T16:02:13.684Z,11.83
2023-03-31T16:04:41.655Z,11.97
2023-03-31T16:07:27.480Z,11.97
2023-03-31T16:10:09.721Z,11.85
2023-03-31T16:13:03.061Z,11.92
2023-03-31T16:15:43.073Z,11.79
2023-03-31T16:18:17.481Z,11.90
2023-03-31T16:20:54.419Z,11.98
2023-03-31T16:23:26.376Z,11.89
2023-03-31T16:25:55.548Z,11.79
2023-03-31T16:28:26.678Z,11.79
2023-03-31T16:30:54.861Z,11.68
2023-03-31T16:33:26.578Z,11.72
2023-03-31T16:35:56.449Z,11.57
2023-03-31T16:38:26.628Z,11.45
2023-03-31T16:40:56.943Z,11.50
2023-03-31T16:43:27.359Z,11.44
2023-03-31T16:45:57.246Z,11.48
2023-03-31T16:48:27.914Z,11.26
2023-03-31T16:51:01.715Z,11.21
2023-03-31T16:53:33.860Z,11.09
2023-03-31T16:56:02.357Z,10.95
2023-03-31T16:58:30.362Z,10.85
2023-03-31T17:00:58.800Z,10.69
2023-03-31T17:03:28.246Z,10.87
2023-03-31T17:05:59.278Z,10.79
2023-03-31T17:08:29.125Z,10.60
2023-03-31T17:11:14.312Z,10.70
2023-03-31T17:13:44.761Z,10.51
2023-03-31T17:16:22.209Z,10.61
2023-03-31T17:18:58.121Z,10.41
2023-03-31T17:21:26.335Z,10.49
2023-03-31T17:24:03.238Z,10.47
2023-03-31T17:26:31.995Z,10.49
2023-03-31T17:29:00.758Z,10.43
2023-03-31T17:31:28.562Z,10.30
2023-03-31T17:33:57.501Z,10.24
2023-03-31T17:36:30.568Z,10.17
2023-03-31T17:39:00.284Z,10.26
2023-03-31T17:41:29.843Z,10.25
2023-03-31T17:43:58.138Z,10.10
2023-03-31T17:46:27.572Z,10.24
2023-03-31T17:48:58.411Z,10.05
2023-03-31T17:51:27.826Z,10.06
2023-03-31T17:53:57.639Z,9.99
2023-03-31T17:56:26.486Z,9.77
2023-03-31T17:58:56.197Z,9.92
2023-03-31T18:01:24.015Z,9.75
2023-03-31T18:03:51.635Z,9.83
2023-03-31T18:06:19.320Z,9.93
2023-03-31T18:08:48.191Z,9.70
2023-03-31T18:11:15.874Z,9.79
2023-03-31T18:13:54.152Z,9.85
2023-03-31T18:16:22.087Z,9.49
2023-03-31T18:18:49.638Z,9.59
2023-03-31T18:21:18.340Z,9.40
2023-03-31T18:23:48.082Z,9.43
2023-03-31T18:26:15.695Z,9.51
2023-03-31T18:28:43.255Z,9.43
2023-03-31T18:31:12.596Z,9.21
2023-03-31T18:33:41.129Z,9.21
2023-03-31T18:36:15.335Z,9.22
2023-03-31T18:38:45.549Z,9.21
2023-03-31T18:41:13.587Z,9.36
2023-03-31T18:43:44.708Z,9.42
2023-03-31T18:46:13.045Z,9.23
2023-03-31T18:48:42.186Z,9.22
2023-03-31T18:51:12.076Z,9.08
2023-03-31T18:53:42.024Z,9.09
2023-03-31T18:56:10.207Z,9.08
2023-03-31T18:58:38.701Z,9.11
2023-03-31T19:01:06.578Z,9.08
2023-03-31T19:03:39.171Z,9.30
2023-03-31T19:06:12.891Z,9.09
2023-03-31T19:08:41.803Z,9.03
2023-03-31T19:11:09.409Z,9.14
2023-03-31T19:13:40.274Z,9.42
2023-03-31T19:16:27.948Z,9.31
2023-03-31T19:18:56.036Z,9.36
2023-03-31T19:21:24.604Z,9.24
2023-03-31T19:23:52.490Z,9.34
2023-03-31T19:26:22.983Z,9.14
2023-03-31T19:28:50.613Z,9.10
2023-03-31T19:31:18.289Z,9.00
2023-03-31T19:33:47.574Z,9.02
2023-03-31T19:36:15.454Z,8.88
2023-03-31T19:38:44.794Z,9.16
2023-03-31T19:41:12.680Z,9.13
2023-03-31T19:43:40.499Z,9.11
2023-03-31T19:46:08.066Z,9.20
2023-03-31T19:48:37.705Z,9.01
2023-03-31T19:51:08.557Z,8.88
2023-03-31T19:53:38.758Z,8.92
2023-03-31T19:56:09.840Z,9.00
2023-03-31T19:58:39.949Z,8.89
2023-03-31T20:01:15.360Z,9.09
2023-03-31T20:03:43.707Z,9.05
2023-03-31T20:06:13.906Z,8.96
2023-03-31T20:08:43.005Z,8.99
2023-03-31T20:11:14.484Z,8.86
2023-03-31T20:13:43.826Z,8.99
2023-03-31T20:16:14.387Z,9.01
2023-03-31T20:18:47.952Z,8.90
2023-03-31T20:21:19.147Z,9.07
2023-03-31T20:23:50.132Z,8.91
2023-03-31T20:26:20.919Z,8.94
2023-03-31T20:28:48.682Z,8.95
2023-03-31T20:31:25.397Z,8.89
2023-03-31T20:33:54.630Z,8.99
2023-03-31T20:36:24.746Z,8.92
2023-03-31T20:38:54.072Z,8.89
2023-03-31T20:41:26.461Z,9.11
2023-03-31T20:43:55.862Z,9.14
2023-03-31T20:46:23.850Z,8.87
2023-03-31T20:48:55.199Z,9.10
2023-03-31T20:51:25.850Z,9.15
2023-03-31T20:53:54.803Z,9.17
2023-03-31T20:56:29.082Z,9.36
2023-03-31T20:58:59.170Z,9.15
2023-03-31T21:01:30.117Z,9.14
2023-03-31T21:04:01.336Z,9.11
2023-03-31T21:06:36.611Z,8.99
2023-03-31T21:09:05.400Z,9.03
2023-03-31T21:11:34.367Z,8.80
2023-03-31T21:14:02.363Z,8.90
2023-03-31T21:16:30.154Z,8.83
2023-03-31T21:19:00.013Z,9.11
2023-03-31T21:21:29.116Z,8.81
2023-03-31T21:23:56.997Z,8.96
2023-03-31T21:26:25.143Z,8.67
2023-03-31T21:31:46.136Z,8.68
2023-03-31T21:34:14.703Z,8.67
2023-03-31T21:36:42.404Z,8.45
2023-03-31T21:39:10.152Z,8.69
2023-03-31T21:41:40.595Z,8.56
2023-03-31T21:44:09.190Z,8.39
2023-03-31T21:46:36.909Z,8.58
2023-03-31T21:49:04.867Z,8.63
2023-03-31T21:51:32.892Z,8.73
2023-03-31T21:54:00.490Z,8.45
2023-03-31T21:56:31.664Z,8.43
2023-03-31T21:59:01.311Z,8.56
2023-03-31T22:01:29.242Z,8.40
2023-03-31T22:03:57.447Z,8.30
2023-03-31T22:06:24.998Z,8.37
2023-03-31T22:08:52.585Z,8.25
2023-03-31T22:11:23.769Z,8.29
2023-03-31T22:13:53.214Z,8.34
2023-03-31T22:16:23.165Z,8.20
2023-03-31T22:18:53.030Z,8.39
2023-03-31T22:21:23.746Z,8.21
2023-03-31T22:23:56.625Z,8.27
2023-03-31T22:26:26.114Z,8.42
2023-03-31T22:28:59.658Z,8.23
2023-03-31T22:31:28.369Z,8.35
2023-03-31T22:33:56.265Z,8.55
2023-03-31T22:36:24.045Z,8.45
2023-03-31T22:38:52.509Z,8.24
2023-03-31T22:41:20.671Z,8.49
2023-03-31T22:43:48.210Z,8.46
2023-03-31T22:46:16.151Z,8.30
2023-03-31T22:48:44.217Z,8.53
2023-03-31T22:51:12.181Z,8.44
2023-03-31T22:53:39.942Z,8.30
2023-03-31T22:56:11.635Z,8.43
2023-03-31T22:58:39.395Z,8.36
2023-03-31T23:01:07.438Z,8.45
2023-03-31T23:03:35.764Z,8.30
2023-03-31T23:06:06.851Z,8.30
2023-03-31T23:08:37.432Z,8.46
2023-03-31T23:11:07.818Z,8.73
2023-03-31T23:13:39.038Z,8.46
2023-03-31T23:16:10.372Z,8.56
2023-03-31T23:18:44.478Z,8.53
2023-03-31T23:21:16.330Z,8.77
2023-03-31T23:23:44.662Z,8.37
2023-03-31T23:26:14.990Z,8.35
2023-03-31T23:28:42.721Z,8.20
2023-03-31T23:31:10.815Z,8.26
2023-03-31T23:33:39.091Z,8.21
2023-03-31T23:36:07.815Z,8.34
2023-03-31T23:38:35.805Z,8.27
2023-03-31T23:41:03.829Z,8.35
2023-03-31T23:43:31.413Z,8.40
2023-03-31T23:46:02.255Z,8.23
2023-03-31T23:48:30.039Z,8.30
2023-03-31T23:50:57.925Z,8.10
2023-03-31T23:53:27.827Z,8.20
2023-03-31T23:56:01.409Z,8.16
2023-03-31T23:58:30.612Z,8.15
